Time;durP1;ratioP1;P1;durP2;ratioP2;P2;SDS_P1;SDS_P2;PMS_P1;PMS_P2;Temp;Humidity;BMP_temperature;BMP_pressure;BME280_temperature;BME280_humidity;BME280_pressure;Samples;Min_cycle;Max_cycle;Signal;HPM_P1;HPM_P2
2023/09/13 00:01:29;;;;;;;;;;;17.70;99.90;;;;;;5086379;28;19908;-69
2023/09/13 00:03:57;;;;;;;;;;;17.80;99.10;;;;;;5091796;28;19920;-69
2023/09/13 00:06:23;;;;;;;;;;;17.90;98.10;;;;;;5089020;28;19912;-65
2023/09/13 00:08:50;;;;;;;;;;;17.90;97.90;;;;;;5091402;28;20273;-72
2023/09/13 00:11:17;;;;;;;;;;;18.00;97.10;;;;;;5083521;28;19976;-68
2023/09/13 00:13:44;;;;;;;;;;;18.10;96.60;;;;;;5092957;28;19908;-75
2023/09/13 00:16:11;;;;;;;;;;;18.20;96.50;;;;;;5073684;28;19943;-79
2023/09/13 00:18:38;;;;;;;;;;;18.40;96.50;;;;;;5084812;28;19913;-70
2023/09/13 00:21:05;;;;;;;;;;;18.50;96.00;;;;;;5094184;28;19915;-68
2023/09/13 00:23:31;;;;;;;;;;;18.60;95.60;;;;;;5092033;28;19904;-72
2023/09/13 00:25:58;;;;;;;;;;;18.70;95.10;;;;;;5075129;28;19915;-67
2023/09/13 00:28:25;;;;;;;;;;;18.80;94.70;;;;;;5093140;28;19955;-69
2023/09/13 00:30:52;;;;;;;;;;;18.90;94.30;;;;;;5092604;28;19920;-65
2023/09/13 00:33:18;;;;;;;;;;;19.00;94.20;;;;;;5093749;28;19927;-76
2023/09/13 00:35:45;;;;;;;;;;;19.00;92.90;;;;;;5080169;28;19915;-67
2023/09/13 00:38:12;;;;;;;;;;;19.20;92.80;;;;;;5072641;28;20373;-64
2023/09/13 00:40:39;;;;;;;;;;;19.20;92.60;;;;;;5079913;28;19909;-68
2023/09/13 00:43:05;;;;;;;;;;;19.40;92.40;;;;;;5093241;28;20318;-66
2023/09/13 00:45:33;;;;;;;;;;;19.30;91.70;;;;;;5085451;28;19914;-72
2023/09/13 00:48:00;;;;;;;;;;;19.50;91.30;;;;;;5093214;28;19923;-69
2023/09/13 00:50:27;;;;;;;;;;;19.60;91.60;;;;;;5093653;28;20369;-72
2023/09/13 00:52:54;;;;;;;;;;;19.70;91.10;;;;;;5092142;28;19920;-74
2023/09/13 00:55:26;;;;;;;;;;;19.80;90.60;;;;;;5089079;28;20306;-76
2023/09/13 00:57:54;;;;;;;;;;;19.90;90.20;;;;;;5085158;28;19912;-70
2023/09/13 01:00:22;;;;;;;;;;;20.00;90.00;;;;;;5093133;28;19912;-69
2023/09/13 01:02:49;;;;;;;;;;;20.00;89.40;;;;;;5094239;28;19919;-78
2023/09/13 01:05:16;;;;;;;;;;;20.20;88.60;;;;;;5091157;28;19912;-78
2023/09/13 01:07:42;;;;;;;;;;;20.40;89.40;;;;;;5092357;28;19908;-74
2023/09/13 01:10:09;;;;;;;;;;;20.60;88.80;;;;;;5088467;28;19913;-80
2023/09/13 01:12:36;;;;;;;;;;;20.80;88.10;;;;;;5091636;28;20014;-72
2023/09/13 01:15:06;;;;;;;;;;;20.90;86.80;;;;;;5072111;28;20459;-74
2023/09/13 01:17:50;;;;;;;;;;;21.10;86.00;;;;;;5072093;28;19915;-66
2023/09/13 01:20:22;;;;;;;;;;;21.20;86.20;;;;;;5073364;28;19995;-76
2023/09/13 01:22:48;;;;;;;;;;;21.40;85.10;;;;;;5072563;28;20288;-76
2023/09/13 01:25:30;;;;;;;;;;;21.40;83.20;;;;;;5087522;28;19939;-66
2023/09/13 01:28:00;;;;;;;;;;;21.50;83.50;;;;;;5092537;28;19908;-73
2023/09/13 01:30:28;;;;;;;;;;;21.70;86.70;;;;;;5092075;28;19995;-79
2023/09/13 01:32:55;;;;;;;;;;;22.00;86.50;;;;;;5080119;28;19920;-79
2023/09/13 01:35:22;;;;;;;;;;;22.30;82.70;;;;;;5077582;28;20002;-79
2023/09/13 01:37:48;;;;;;;;;;;22.50;82.60;;;;;;5082276;28;20366;-76
2023/09/13 01:40:15;;;;;;;;;;;22.50;82.60;;;;;;5089720;28;20384;-72
2023/09/13 01:42:45;;;;;;;;;;;22.60;80.90;;;;;;5074482;28;19920;-65
2023/09/13 01:45:12;;;;;;;;;;;22.80;81.10;;;;;;5086091;28;19912;-68
2023/09/13 01:47:41;;;;;;;;;;;22.90;79.20;;;;;;5089015;28;20392;-67
2023/09/13 01:50:08;;;;;;;;;;;23.10;78.80;;;;;;5089675;28;20037;-71
2023/09/13 01:52:34;;;;;;;;;;;23.10;77.00;;;;;;5086171;28;19924;-77
2023/09/13 01:55:05;;;;;;;;;;;23.20;76.20;;;;;;5082972;28;19908;-75
2023/09/13 01:57:32;;;;;;;;;;;23.20;75.00;;;;;;5089362;28;19966;-74
2023/09/13 01:59:58;;;;;;;;;;;23.40;76.70;;;;;;5081671;28;19916;-71
2023/09/13 02:02:25;;;;;;;;;;;23.60;75.90;;;;;;5088077;28;20369;-74
2023/09/13 02:04:52;;;;;;;;;;;24.00;77.80;;;;;;5087541;28;19961;-68
2023/09/13 02:07:20;;;;;;;;;;;24.10;72.90;;;;;;5081860;28;19918;-72
2023/09/13 02:09:46;;;;;;;;;;;24.10;72.80;;;;;;5091663;28;20007;-67
2023/09/13 02:12:13;;;;;;;;;;;24.30;74.90;;;;;;5088019;28;19926;-69
2023/09/13 02:14:40;;;;;;;;;;;24.50;73.70;;;;;;5097379;28;20363;-65
2023/09/13 02:17:08;;;;;;;;;;;24.60;72.70;;;;;;5105533;28;19942;-67
2023/09/13 02:19:34;;;;;;;;;;;24.80;72.50;;;;;;5094117;28;19916;-65
2023/09/13 02:22:01;;;;;;;;;;;25.10;71.90;;;;;;5116208;28;19912;-65
2023/09/13 02:24:28;;;;;;;;;;;25.10;71.10;;;;;;5106202;28;19919;-64
2023/09/13 02:26:58;;;;;;;;;;;25.00;70.60;;;;;;5088179;28;19912;-68
2023/09/13 02:29:25;;;;;;;;;;;25.00;70.50;;;;;;5098611;28;19996;-68
2023/09/13 02:31:52;;;;;;;;;;;25.20;71.10;;;;;;5095541;28;20400;-66
2023/09/13 02:34:19;;;;;;;;;;;25.40;70.10;;;;;;5095558;28;19954;-65
2023/09/13 02:36:45;;;;;;;;;;;25.60;69.30;;;;;;5095447;28;20356;-66
2023/09/13 02:39:32;;;;;;;;;;;26.00;69.80;;;;;;5095073;28;19915;-67
2023/09/13 02:41:59;;;;;;;;;;;26.70;68.10;;;;;;5090275;28;19916;-70
2023/09/13 02:44:25;;;;;;;;;;;27.60;66.80;;;;;;5086671;28;20449;-66
2023/09/13 02:46:52;;;;;;;;;;;28.30;64.60;;;;;;5078407;28;19950;-70
2023/09/13 02:49:19;;;;;;;;;;;29.60;64.00;;;;;;5094622;28;19912;-66
2023/09/13 02:51:47;;;;;;;;;;;30.40;62.50;;;;;;5095532;28;19916;-66
2023/09/13 02:54:14;;;;;;;;;;;31.80;61.50;;;;;;5089792;28;19908;-66
2023/09/13 02:56:41;;;;;;;;;;;32.50;58.60;;;;;;5094971;28;19912;-66
2023/09/13 02:59:08;;;;;;;;;;;33.50;57.50;;;;;;5094763;28;19916;-66
2023/09/13 03:01:34;;;;;;;;;;;33.60;59.80;;;;;;5095167;28;19962;-67
2023/09/13 03:04:01;;;;;;;;;;;33.50;59.10;;;;;;5089641;28;19952;-66
2023/09/13 03:06:29;;;;;;;;;;;34.40;59.90;;;;;;5090266;28;19934;-71
2023/09/13 03:08:56;;;;;;;;;;;34.80;60.00;;;;;;5093844;28;19912;-66
2023/09/13 03:11:23;;;;;;;;;;;34.80;58.20;;;;;;5092976;28;19935;-72
2023/09/13 03:13:49;;;;;;;;;;;35.50;58.50;;;;;;5090236;28;19913;-67
2023/09/13 03:16:17;;;;;;;;;;;35.10;56.50;;;;;;5074235;28;19908;-69
2023/09/13 03:18:45;;;;;;;;;;;35.10;57.00;;;;;;5090448;28;19915;-68
2023/09/13 03:21:12;;;;;;;;;;;35.30;57.60;;;;;;5093307;28;19908;-65
2023/09/13 03:23:39;;;;;;;;;;;35.80;55.50;;;;;;5092614;28;19916;-66
2023/09/13 03:26:20;;;;;;;;;;;35.50;56.40;;;;;;5090306;28;19953;-66
2023/09/13 03:28:48;;;;;;;;;;;35.80;54.70;;;;;;5093560;28;19992;-68
2023/09/13 03:31:15;;;;;;;;;;;36.10;53.90;;;;;;5093619;28;19912;-71
2023/09/13 03:33:43;;;;;;;;;;;35.80;53.40;;;;;;5093717;28;19912;-73
2023/09/13 03:36:10;;;;;;;;;;;35.40;54.00;;;;;;5093675;28;20003;-66
2023/09/13 03:38:38;;;;;;;;;;;34.90;54.20;;;;;;5092662;28;20512;-71
2023/09/13 03:41:08;;;;;;;;;;;35.60;53.60;;;;;;5093041;28;20006;-69
2023/09/13 03:43:35;;;;;;;;;;;35.80;52.40;;;;;;5092563;28;20333;-73
2023/09/13 03:46:03;;;;;;;;;;;35.90;53.10;;;;;;5091917;28;20015;-73
2023/09/13 03:48:30;;;;;;;;;;;36.20;53.10;;;;;;5093509;28;19920;-68
2023/09/13 03:50:57;;;;;;;;;;;36.10;53.90;;;;;;5103634;28;20353;-72
2023/09/13 03:53:24;;;;;;;;;;;35.80;53.60;;;;;;5093848;28;19912;-67
2023/09/13 03:55:51;;;;;;;;;;;35.10;55.20;;;;;;5090930;28;20269;-66
2023/09/13 03:58:18;;;;;;;;;;;35.40;54.00;;;;;;5092960;28;19919;-71
2023/09/13 04:00:44;;;;;;;;;;;35.50;52.80;;;;;;5094047;28;20002;-69
2023/09/13 04:03:11;;;;;;;;;;;35.00;53.40;;;;;;5093347;28;20028;-67
2023/09/13 04:05:38;;;;;;;;;;;35.20;54.50;;;;;;5086151;28;20280;-66
2023/09/13 04:08:05;;;;;;;;;;;35.60;52.90;;;;;;5091710;28;19995;-67
2023/09/13 04:10:31;;;;;;;;;;;35.00;52.30;;;;;;5093824;28;20366;-71
2023/09/13 04:12:58;;;;;;;;;;;34.40;52.50;;;;;;5092435;28;19924;-67
2023/09/13 04:15:25;;;;;;;;;;;34.30;52.30;;;;;;5084357;28;20280;-71
2023/09/13 04:17:51;;;;;;;;;;;34.10;52.70;;;;;;5092971;28;19998;-68
2023/09/13 04:20:19;;;;;;;;;;;34.30;51.60;;;;;;5103527;28;19945;-67
2023/09/13 04:22:46;;;;;;;;;;;34.20;51.60;;;;;;5094431;28;19914;-68
2023/09/13 04:25:13;;;;;;;;;;;34.10;53.00;;;;;;5087221;28;20385;-78
2023/09/13 04:27:44;;;;;;;;;;;34.50;52.30;;;;;;5095823;28;20364;-70
2023/09/13 04:30:11;;;;;;;;;;;35.00;52.00;;;;;;5100219;28;20379;-67
2023/09/13 04:32:38;;;;;;;;;;;35.10;51.20;;;;;;5092997;28;19963;-69
2023/09/13 04:35:05;;;;;;;;;;;35.20;51.00;;;;;;5087920;28;19912;-71
2023/09/13 04:37:31;;;;;;;;;;;35.40;49.80;;;;;;5096216;28;19923;-67
2023/09/13 04:39:58;;;;;;;;;;;35.20;49.80;;;;;;5102108;28;20331;-67
2023/09/13 04:42:25;;;;;;;;;;;35.50;50.50;;;;;;5077373;28;19913;-68
2023/09/13 04:44:51;;;;;;;;;;;36.00;49.00;;;;;;5083849;28;19989;-75
2023/09/13 04:47:18;;;;;;;;;;;35.80;48.80;;;;;;5073728;28;19921;-73
2023/09/13 04:49:45;;;;;;;;;;;35.90;49.30;;;;;;5073933;28;20277;-67
2023/09/13 04:52:13;;;;;;;;;;;36.20;49.50;;;;;;5090148;28;19916;-75
2023/09/13 04:54:39;;;;;;;;;;;36.50;50.40;;;;;;5088153;28;19912;-67
2023/09/13 04:57:09;;;;;;;;;;;36.60;49.20;;;;;;5074481;28;19947;-78
2023/09/13 04:59:46;;;;;;;;;;;36.90;50.00;;;;;;5100393;28;19934;-72
2023/09/13 05:02:13;;;;;;;;;;;37.30;49.30;;;;;;5091315;28;19915;-71
2023/09/13 05:04:39;;;;;;;;;;;37.70;50.10;;;;;;5075901;28;19967;-68
2023/09/13 05:07:06;;;;;;;;;;;38.10;47.70;;;;;;5075372;28;19964;-72
2023/09/13 05:09:35;;;;;;;;;;;38.00;48.50;;;;;;5088519;28;20182;-75
2023/09/13 05:12:01;;;;;;;;;;;37.60;48.10;;;;;;5090741;28;20517;-70
2023/09/13 05:14:28;;;;;;;;;;;37.50;48.80;;;;;;5089545;28;19920;-73
2023/09/13 05:16:55;;;;;;;;;;;37.20;48.20;;;;;;5086474;28;19912;-76
2023/09/13 05:19:21;;;;;;;;;;;36.50;48.40;;;;;;5077918;28;19918;-67
2023/09/13 05:21:48;;;;;;;;;;;36.40;49.00;;;;;;5088459;28;19968;-69
2023/09/13 05:24:15;;;;;;;;;;;36.00;48.90;;;;;;5089527;28;19927;-69
2023/09/13 05:26:41;;;;;;;;;;;36.30;49.60;;;;;;5088936;28;20399;-79
2023/09/13 05:29:08;;;;;;;;;;;36.50;47.90;;;;;;5072565;28;20367;-72
2023/09/13 05:31:35;;;;;;;;;;;36.50;47.90;;;;;;5081716;28;19920;-75
2023/09/13 05:34:01;;;;;;;;;;;36.60;48.50;;;;;;5079784;28;20003;-69
2023/09/13 05:36:28;;;;;;;;;;;36.90;49.40;;;;;;5090610;28;20291;-78
2023/09/13 05:38:54;;;;;;;;;;;36.80;47.50;;;;;;5090499;28;20350;-75
2023/09/13 05:41:21;;;;;;;;;;;36.30;48.20;;;;;;5090213;28;19912;-68
2023/09/13 05:43:48;;;;;;;;;;;35.90;48.70;;;;;;5096187;28;19916;-68
2023/09/13 05:46:16;;;;;;;;;;;35.70;49.00;;;;;;5095882;28;20434;-76
2023/09/13 05:48:43;;;;;;;;;;;35.80;50.30;;;;;;5087773;28;19928;-74
2023/09/13 05:51:09;;;;;;;;;;;36.20;50.30;;;;;;5086043;28;19961;-72
2023/09/13 05:53:37;;;;;;;;;;;36.30;49.70;;;;;;5089990;28;20253;-69
2023/09/13 05:56:03;;;;;;;;;;;36.30;49.20;;;;;;5097991;28;20368;-74
2023/09/13 05:58:30;;;;;;;;;;;36.50;48.90;;;;;;5105833;28;19912;-76
2023/09/13 06:00:57;;;;;;;;;;;36.10;48.70;;;;;;5095684;28;19916;-77
2023/09/13 06:03:24;;;;;;;;;;;35.60;49.40;;;;;;5099962;27;19911;-71
2023/09/13 06:05:51;;;;;;;;;;;35.50;49.60;;;;;;5096492;28;19915;-75
2023/09/13 06:08:18;;;;;;;;;;;35.50;49.30;;;;;;5096319;28;19912;-71
2023/09/13 06:10:45;;;;;;;;;;;35.20;49.70;;;;;;5092852;28;19908;-69
2023/09/13 06:13:12;;;;;;;;;;;34.90;50.40;;;;;;5094776;28;19920;-68
2023/09/13 06:15:39;;;;;;;;;;;35.10;49.80;;;;;;5097439;28;19916;-67
2023/09/13 06:18:05;;;;;;;;;;;35.10;50.20;;;;;;5096989;28;19912;-74
2023/09/13 06:20:32;;;;;;;;;;;35.10;50.30;;;;;;5096929;28;19908;-73
2023/09/13 06:22:59;;;;;;;;;;;35.00;51.10;;;;;;5088591;28;20379;-68
2023/09/13 06:25:25;;;;;;;;;;;34.90;51.80;;;;;;5096867;28;19912;-77
2023/09/13 06:27:52;;;;;;;;;;;34.30;52.50;;;;;;5092694;28;19918;-69
2023/09/13 06:30:20;;;;;;;;;;;34.50;52.80;;;;;;5096347;28;19916;-80
2023/09/13 06:32:47;;;;;;;;;;;34.80;52.00;;;;;;5086970;28;19920;-78
2023/09/13 06:35:14;;;;;;;;;;;35.40;51.70;;;;;;5088518;28;20002;-77
2023/09/13 06:37:41;;;;;;;;;;;35.60;51.30;;;;;;5093897;28;19958;-73
2023/09/13 06:40:07;;;;;;;;;;;35.10;51.20;;;;;;5096938;28;19917;-69
2023/09/13 06:42:34;;;;;;;;;;;34.30;52.00;;;;;;5084756;28;20396;-68
2023/09/13 06:45:02;;;;;;;;;;;34.30;52.40;;;;;;5096425;28;19908;-74
2023/09/13 06:47:30;;;;;;;;;;;33.20;52.40;;;;;;5094623;28;19920;-68
2023/09/13 06:49:57;;;;;;;;;;;32.50;53.40;;;;;;5097223;28;19908;-67
2023/09/13 06:52:23;;;;;;;;;;;31.90;54.20;;;;;;5094646;28;20288;-68
2023/09/13 06:54:50;;;;;;;;;;;30.90;55.00;;;;;;5086795;28;19913;-67
2023/09/13 06:57:17;;;;;;;;;;;29.80;55.70;;;;;;5087061;28;19912;-66
2023/09/13 06:59:43;;;;;;;;;;;28.70;57.00;;;;;;5092206;28;19913;-68
2023/09/13 07:02:10;;;;;;;;;;;27.80;58.60;;;;;;5086022;28;19912;-77
2023/09/13 07:04:38;;;;;;;;;;;26.90;60.20;;;;;;5096564;28;19931;-73
2023/09/13 07:07:05;;;;;;;;;;;26.00;61.30;;;;;;5093555;28;19912;-67
2023/09/13 07:09:32;;;;;;;;;;;25.30;62.70;;;;;;5090864;28;20280;-71
2023/09/13 07:11:58;;;;;;;;;;;24.60;63.80;;;;;;5076198;28;20080;-73
2023/09/13 07:14:25;;;;;;;;;;;24.00;65.10;;;;;;5084243;28;19916;-67
2023/09/13 07:16:52;;;;;;;;;;;23.50;66.30;;;;;;5082587;28;19964;-67
2023/09/13 07:19:18;;;;;;;;;;;23.20;67.10;;;;;;5086085;28;19924;-67
2023/09/13 07:21:46;;;;;;;;;;;22.80;68.80;;;;;;5078832;28;19931;-66
2023/09/13 07:24:12;;;;;;;;;;;22.50;70.10;;;;;;5086523;28;20476;-66
2023/09/13 07:26:39;;;;;;;;;;;22.20;70.50;;;;;;5092228;28;19912;-70
2023/09/13 07:29:05;;;;;;;;;;;22.10;71.70;;;;;;5087753;28;19919;-66
2023/09/13 07:31:32;;;;;;;;;;;21.80;71.90;;;;;;5081906;28;19916;-73
2023/09/13 07:34:02;;;;;;;;;;;21.60;72.60;;;;;;5085520;28;19923;-79
2023/09/13 07:36:29;;;;;;;;;;;21.50;73.50;;;;;;5088891;28;20361;-67
2023/09/13 07:38:56;;;;;;;;;;;21.30;73.60;;;;;;5092489;28;19912;-75
2023/09/13 07:41:23;;;;;;;;;;;21.10;74.20;;;;;;5085899;28;20281;-77
2023/09/13 07:43:49;;;;;;;;;;;20.90;74.90;;;;;;5085928;28;19912;-64
2023/09/13 07:46:16;;;;;;;;;;;20.80;75.10;;;;;;5085323;28;19935;-66
2023/09/13 07:48:43;;;;;;;;;;;20.60;75.60;;;;;;5085169;28;19966;-66
2023/09/13 07:51:09;;;;;;;;;;;20.50;76.30;;;;;;5087814;28;19969;-65
2023/09/13 07:53:36;;;;;;;;;;;20.50;76.90;;;;;;5078977;28;19916;-66
2023/09/13 07:56:03;;;;;;;;;;;20.40;77.50;;;;;;5089354;28;20452;-66
2023/09/13 07:58:29;;;;;;;;;;;20.30;78.20;;;;;;5089524;28;19912;-67
2023/09/13 08:00:56;;;;;;;;;;;20.20;78.60;;;;;;5090961;28;20506;-67
2023/09/13 08:03:22;;;;;;;;;;;20.10;79.30;;;;;;5084777;28;20366;-67
2023/09/13 08:05:49;;;;;;;;;;;20.00;80.00;;;;;;5082326;28;19912;-67
2023/09/13 08:08:22;;;;;;;;;;;19.90;80.80;;;;;;5100199;28;20253;-66
2023/09/13 08:10:50;;;;;;;;;;;19.80;81.40;;;;;;5087325;28;20369;-65
2023/09/13 08:13:17;;;;;;;;;;;19.80;82.10;;;;;;5084290;28;20019;-66
2023/09/13 08:15:45;;;;;;;;;;;19.70;82.50;;;;;;5080095;28;19966;-66
2023/09/13 08:18:11;;;;;;;;;;;19.60;83.90;;;;;;5082580;28;20083;-66
2023/09/13 08:20:38;;;;;;;;;;;19.50;83.70;;;;;;5081841;28;20375;-67
2023/09/13 08:23:04;;;;;;;;;;;19.40;84.30;;;;;;5091827;28;19912;-70
2023/09/13 08:25:31;;;;;;;;;;;19.30;85.00;;;;;;5089884;28;20372;-70
2023/09/13 08:27:58;;;;;;;;;;;19.20;85.70;;;;;;5079690;28;19978;-66
2023/09/13 08:30:24;;;;;;;;;;;19.10;86.50;;;;;;5073604;28;20414;-70
2023/09/13 08:32:51;;;;;;;;;;;19.10;87.90;;;;;;5079296;28;20288;-66
2023/09/13 08:35:18;;;;;;;;;;;19.00;88.10;;;;;;5093057;28;19920;-67
2023/09/13 08:37:44;;;;;;;;;;;19.00;89.10;;;;;;5084850;28;19935;-67
2023/09/13 08:40:11;;;;;;;;;;;18.90;90.10;;;;;;5077737;28;20280;-66
2023/09/13 08:42:40;;;;;;;;;;;18.80;90.60;;;;;;5082201;28;19989;-68
2023/09/13 08:45:07;;;;;;;;;;;18.70;91.00;;;;;;5085586;28;20369;-70
2023/09/13 08:47:36;;;;;;;;;;;18.60;91.20;;;;;;5086050;28;19921;-68
2023/09/13 08:50:03;;;;;;;;;;;18.60;91.90;;;;;;5080040;28;19935;-77
2023/09/13 08:52:35;;;;;;;;;;;18.60;92.70;;;;;;5075052;28;19920;-73
2023/09/13 08:55:03;;;;;;;;;;;18.50;93.30;;;;;;5091869;28;19919;-67
2023/09/13 08:57:30;;;;;;;;;;;18.40;94.20;;;;;;5090354;28;20007;-69
2023/09/13 08:59:57;;;;;;;;;;;18.40;94.90;;;;;;5089740;28;19965;-65
2023/09/13 09:02:26;;;;;;;;;;;18.40;95.80;;;;;;5073561;28;19995;-67
2023/09/13 09:04:52;;;;;;;;;;;18.30;97.00;;;;;;5085641;28;19926;-67
2023/09/13 09:07:21;;;;;;;;;;;18.30;98.30;;;;;;5092934;28;19919;-68
2023/09/13 09:09:48;;;;;;;;;;;18.40;99.60;;;;;;5091326;28;20326;-75
2023/09/13 09:12:19;;;;;;;;;;;18.30;99.90;;;;;;5078015;28;19916;-72
2023/09/13 09:14:46;;;;;;;;;;;18.20;99.90;;;;;;5091195;28;19965;-67
2023/09/13 09:17:14;;;;;;;;;;;18.10;99.90;;;;;;5085638;28;20316;-66
2023/09/13 09:19:41;;;;;;;;;;;18.10;99.90;;;;;;5085867;28;19917;-66
2023/09/13 09:22:08;;;;;;;;;;;18.10;99.90;;;;;;5085531;28;19912;-66
2023/09/13 09:24:36;;;;;;;;;;;18.10;99.90;;;;;;5088986;28;20007;-69
2023/09/13 09:27:02;;;;;;;;;;;18.00;99.90;;;;;;5085425;28;19912;-70
2023/09/13 09:29:44;;;;;;;;;;;18.00;99.90;;;;;;5080020;28;19919;-65
2023/09/13 09:32:12;;;;;;;;;;;17.90;99.90;;;;;;5087688;28;19920;-70
2023/09/13 09:34:42;;;;;;;;;;;18.00;99.90;;;;;;5092024;28;19914;-67
2023/09/13 09:37:09;;;;;;;;;;;17.90;99.90;;;;;;5100802;28;19916;-67
2023/09/13 09:39:45;;;;;;;;;;;17.80;99.90;;;;;;5091272;28;19999;-66
2023/09/13 09:42:15;;;;;;;;;;;17.80;99.90;;;;;;5088005;28;19913;-65
2023/09/13 09:44:41;;;;;;;;;;;17.80;99.90;;;;;;5085988;28;19923;-71
2023/09/13 09:47:12;;;;;;;;;;;17.70;99.90;;;;;;5089722;28;19955;-67
2023/09/13 09:49:38;;;;;;;;;;;17.50;99.90;;;;;;5090841;28;19916;-66
2023/09/13 09:52:07;;;;;;;;;;;17.50;99.90;;;;;;5087984;28;19927;-68
2023/09/13 09:54:34;;;;;;;;;;;17.50;99.90;;;;;;5071774;28;19909;-69
2023/09/13 09:57:01;;;;;;;;;;;17.40;99.90;;;;;;5079211;28;19916;-70
2023/09/13 09:59:29;;;;;;;;;;;17.30;99.90;;;;;;5086424;28;19970;-67
2023/09/13 10:01:59;;;;;;;;;;;17.30;99.90;;;;;;5088588;28;19912;-75
2023/09/13 10:04:26;;;;;;;;;;;17.30;99.90;;;;;;5086104;28;19913;-65
2023/09/13 10:06:57;;;;;;;;;;;17.30;99.90;;;;;;5079738;28;20373;-70
2023/09/13 10:09:23;;;;;;;;;;;17.20;99.90;;;;;;5071665;28;20021;-68
2023/09/13 10:11:57;;;;;;;;;;;17.20;99.90;;;;;;5076650;28;19924;-71
2023/09/13 10:14:27;;;;;;;;;;;17.20;99.90;;;;;;5070157;28;20360;-68
2023/09/13 10:16:57;;;;;;;;;;;17.20;99.90;;;;;;5078069;28;19973;-65
2023/09/13 10:19:23;;;;;;;;;;;17.20;99.90;;;;;;5073905;28;19931;-68
2023/09/13 10:21:51;;;;;;;;;;;17.20;99.90;;;;;;5082785;28;19923;-72
2023/09/13 10:24:20;;;;;;;;;;;17.10;99.90;;;;;;5100210;28;19919;-64
2023/09/13 10:26:46;;;;;;;;;;;17.10;99.90;;;;;;5087044;28;19954;-64
2023/09/13 10:29:19;;;;;;;;;;;17.10;99.90;;;;;;5078992;28;20377;-66
2023/09/13 10:31:47;;;;;;;;;;;17.00;99.90;;;;;;5077059;28;19922;-67
2023/09/13 10:34:22;;;;;;;;;;;17.00;99.90;;;;;;5070886;28;19908;-66
2023/09/13 10:36:51;;;;;;;;;;;16.90;99.90;;;;;;5073340;28;19919;-67
2023/09/13 10:39:25;;;;;;;;;;;16.90;99.90;;;;;;5076220;28;19920;-64
2023/09/13 10:42:05;;;;;;;;;;;16.80;99.90;;;;;;5093191;28;19908;-64
2023/09/13 10:44:34;;;;;;;;;;;16.70;99.90;;;;;;5079556;28;19913;-65
2023/09/13 10:47:00;;;;;;;;;;;16.70;99.90;;;;;;5084796;28;19920;-64
2023/09/13 10:49:27;;;;;;;;;;;16.70;99.90;;;;;;5082297;28;19912;-63
2023/09/13 10:51:56;;;;;;;;;;;16.70;99.90;;;;;;5074211;28;19916;-65
2023/09/13 10:54:24;;;;;;;;;;;16.70;99.90;;;;;;5077558;28;19924;-67
2023/09/13 10:56:51;;;;;;;;;;;16.60;99.90;;;;;;5093842;28;19919;-65
2023/09/13 10:59:18;;;;;;;;;;;16.60;99.90;;;;;;5079472;28;20421;-70
2023/09/13 11:01:48;;;;;;;;;;;16.50;99.90;;;;;;5094862;28;19915;-64
2023/09/13 11:04:19;;;;;;;;;;;16.40;99.90;;;;;;5082791;28;20058;-64
2023/09/13 11:06:46;;;;;;;;;;;16.40;99.90;;;;;;5082607;28;19916;-67
2023/09/13 11:09:17;;;;;;;;;;;16.50;99.90;;;;;;5083341;28;20015;-67
2023/09/13 11:11:45;;;;;;;;;;;16.40;99.90;;;;;;5074143;28;19964;-74
2023/09/13 11:14:17;;;;;;;;;;;16.30;99.90;;;;;;5074919;28;19912;-65
2023/09/13 11:16:46;;;;;;;;;;;16.30;99.90;;;;;;5091028;28;20007;-76
2023/09/13 11:19:15;;;;;;;;;;;16.30;99.90;;;;;;5078122;28;19908;-66
2023/09/13 11:21:54;;;;;;;;;;;16.20;99.90;;;;;;5074073;28;20293;-65
2023/09/13 11:24:47;;;;;;;;;;;16.20;99.90;;;;;;5110497;28;19908;-68
2023/09/13 11:27:15;;;;;;;;;;;16.20;99.90;;;;;;5085507;28;20015;-66
2023/09/13 11:29:43;;;;;;;;;;;16.10;99.90;;;;;;5083386;28;20010;-64
2023/09/13 11:32:16;;;;;;;;;;;16.00;99.90;;;;;;5082898;28;19924;-67
2023/09/13 11:34:43;;;;;;;;;;;16.10;99.90;;;;;;5093563;28;19912;-70
2023/09/13 11:37:10;;;;;;;;;;;16.00;99.90;;;;;;5093499;28;19947;-64
2023/09/13 11:39:38;;;;;;;;;;;16.00;99.90;;;;;;5099319;28;19952;-70
2023/09/13 11:42:09;;;;;;;;;;;15.90;99.90;;;;;;5079548;28;19921;-65
2023/09/13 11:44:36;;;;;;;;;;;15.80;99.90;;;;;;5086680;28;19912;-65
2023/09/13 11:47:02;;;;;;;;;;;15.80;99.90;;;;;;5093365;28;19927;-64
2023/09/13 11:49:29;;;;;;;;;;;15.80;99.90;;;;;;5094158;28;19919;-71
2023/09/13 11:51:57;;;;;;;;;;;15.80;99.90;;;;;;5093823;28;19928;-73
2023/09/13 11:54:24;;;;;;;;;;;15.90;99.90;;;;;;5088633;28;19915;-70
2023/09/13 11:56:54;;;;;;;;;;;15.90;99.90;;;;;;5089823;28;19916;-64
2023/09/13 11:59:25;;;;;;;;;;;15.80;99.90;;;;;;5090660;28;19920;-65
2023/09/13 12:01:52;;;;;;;;;;;15.80;99.90;;;;;;5090333;28;19916;-66
2023/09/13 12:04:22;;;;;;;;;;;15.70;99.90;;;;;;5092198;28;19942;-68
2023/09/13 12:06:55;;;;;;;;;;;15.70;99.90;;;;;;5089528;28;20392;-68
2023/09/13 12:09:22;;;;;;;;;;;15.70;99.90;;;;;;5089731;28;19909;-66
2023/09/13 12:11:50;;;;;;;;;;;15.60;99.90;;;;;;5090561;28;19916;-65
2023/09/13 12:14:18;;;;;;;;;;;15.60;99.90;;;;;;5092339;28;19920;-65
2023/09/13 12:16:49;;;;;;;;;;;15.50;99.90;;;;;;5092291;28;19912;-65
2023/09/13 12:19:16;;;;;;;;;;;15.50;99.90;;;;;;5090088;28;19965;-70
2023/09/13 12:21:47;;;;;;;;;;;15.50;99.90;;;;;;5092401;28;19984;-65
2023/09/13 12:24:20;;;;;;;;;;;15.40;99.90;;;;;;5090672;28;20006;-65
2023/09/13 12:26:46;;;;;;;;;;;15.40;99.90;;;;;;5073962;28;19957;-66
2023/09/13 12:29:14;;;;;;;;;;;15.40;99.90;;;;;;5084159;28;19908;-66
2023/09/13 12:31:41;;;;;;;;;;;15.40;99.90;;;;;;5093275;28;19938;-69
2023/09/13 12:34:09;;;;;;;;;;;15.40;99.90;;;;;;5093558;28;19912;-68
2023/09/13 12:36:36;;;;;;;;;;;15.30;99.90;;;;;;5091742;28;19908;-63
2023/09/13 12:39:12;;;;;;;;;;;15.30;99.90;;;;;;5089959;28;19913;-67
2023/09/13 12:41:38;;;;;;;;;;;15.30;99.90;;;;;;5088874;28;19983;-66
2023/09/13 12:44:05;;;;;;;;;;;15.20;99.90;;;;;;5073386;28;19959;-65
2023/09/13 12:46:33;;;;;;;;;;;15.20;99.90;;;;;;5072884;28;19963;-65
2023/09/13 12:49:03;;;;;;;;;;;15.30;99.90;;;;;;5073055;28;19931;-65
2023/09/13 12:51:33;;;;;;;;;;;15.20;99.90;;;;;;5089120;28;20284;-65
2023/09/13 12:54:00;;;;;;;;;;;15.20;99.90;;;;;;5091757;28;19961;-71
2023/09/13 12:56:27;;;;;;;;;;;15.10;99.90;;;;;;5093072;28;19969;-65
2023/09/13 12:58:57;;;;;;;;;;;15.20;99.90;;;;;;5081702;28;19909;-67
2023/09/13 13:01:26;;;;;;;;;;;15.10;99.90;;;;;;5079036;28;19936;-65
2023/09/13 13:04:02;;;;;;;;;;;15.20;99.90;;;;;;5092079;28;19908;-67
2023/09/13 13:06:31;;;;;;;;;;;15.10;99.90;;;;;;5089058;28;19913;-66
2023/09/13 13:09:07;;;;;;;;;;;15.10;99.90;;;;;;5072535;28;19995;-64
2023/09/13 13:11:35;;;;;;;;;;;15.10;99.90;;;;;;5072620;28;19913;-67
2023/09/13 13:14:02;;;;;;;;;;;15.00;99.90;;;;;;5088085;28;19972;-65
2023/09/13 13:16:29;;;;;;;;;;;15.10;99.90;;;;;;5092562;28;19912;-68
2023/09/13 13:18:56;;;;;;;;;;;15.00;99.90;;;;;;5081315;28;19908;-65
2023/09/13 13:21:25;;;;;;;;;;;15.00;99.90;;;;;;5079323;28;19908;-67
2023/09/13 13:23:52;;;;;;;;;;;14.90;99.90;;;;;;5107039;28;19908;-66
2023/09/13 13:26:20;;;;;;;;;;;14.90;99.90;;;;;;5095171;28;20288;-68
2023/09/13 13:28:47;;;;;;;;;;;14.90;99.90;;;;;;5082417;28;20272;-66
2023/09/13 13:31:14;;;;;;;;;;;14.90;99.90;;;;;;5071837;28;19909;-66
2023/09/13 13:33:41;;;;;;;;;;;14.80;99.90;;;;;;5072311;28;19913;-66
2023/09/13 13:36:07;;;;;;;;;;;14.80;99.90;;;;;;5072787;28;19932;-66
2023/09/13 13:38:34;;;;;;;;;;;14.80;99.90;;;;;;5072600;28;19908;-66
2023/09/13 13:41:08;;;;;;;;;;;14.70;99.90;;;;;;5072623;28;20323;-65
2023/09/13 13:43:35;;;;;;;;;;;14.70;99.90;;;;;;5073528;28;19913;-65
2023/09/13 13:46:05;;;;;;;;;;;14.60;99.90;;;;;;5072315;28;19913;-65
2023/09/13 13:48:35;;;;;;;;;;;14.50;99.90;;;;;;5072573;28;19912;-66
2023/09/13 13:51:05;;;;;;;;;;;14.60;99.90;;;;;;5084184;28;19922;-65
2023/09/13 13:53:32;;;;;;;;;;;14.60;99.90;;;;;;5092167;28;19920;-68
2023/09/13 13:56:00;;;;;;;;;;;14.60;99.90;;;;;;5102565;28;20360;-66
2023/09/13 13:58:26;;;;;;;;;;;14.50;99.90;;;;;;5099959;28;19908;-68
2023/09/13 14:00:53;;;;;;;;;;;14.40;99.90;;;;;;5087437;28;19912;-65
2023/09/13 14:03:21;;;;;;;;;;;14.40;99.90;;;;;;5077352;28;19916;-66
2023/09/13 14:05:48;;;;;;;;;;;14.40;99.90;;;;;;5080043;28;20300;-65
2023/09/13 14:08:18;;;;;;;;;;;14.50;99.90;;;;;;5077502;28;19912;-78
2023/09/13 14:10:45;;;;;;;;;;;14.40;99.90;;;;;;5093721;28;20415;-78
2023/09/13 14:13:13;;;;;;;;;;;14.40;99.90;;;;;;5098650;28;20357;-68
2023/09/13 14:15:40;;;;;;;;;;;14.40;99.90;;;;;;5104845;28;20335;-69
2023/09/13 14:18:07;;;;;;;;;;;14.40;99.90;;;;;;5080361;28;19953;-70
2023/09/13 14:20:35;;;;;;;;;;;14.30;99.90;;;;;;5094582;28;20394;-66